createdAt,value
2018-12-16T00:02:13.619Z,19.43
2018-12-16T00:04:49.842Z,20.23
2018-12-16T00:07:16.411Z,19.67
2018-12-16T00:09:48.523Z,19.77
2018-12-16T00:12:27.162Z,19.37
2018-12-16T00:14:58.459Z,20.20
2018-12-16T00:17:32.351Z,18.83
2018-12-16T00:20:04.134Z,19.13
2018-12-16T00:22:35.788Z,19.90
2018-12-16T00:25:08.551Z,19.90
2018-12-16T00:27:45.550Z,18.83
2018-12-16T00:30:15.791Z,18.80
2018-12-16T00:32:50.993Z,19.13
2018-12-16T00:35:19.904Z,19.53
2018-12-16T00:37:48.391Z,19.03
2018-12-16T00:40:19.706Z,18.77
2018-12-16T00:45:32.593Z,18.77
2018-12-16T00:48:06.159Z,18.83
2018-12-16T00:50:39.689Z,18.83
2018-12-16T00:53:14.476Z,18.57
2018-12-16T00:55:45.555Z,18.47
2018-12-16T00:58:14.093Z,18.50
2018-12-16T01:00:46.894Z,18.53
2018-12-16T01:03:20.638Z,17.43
2018-12-16T01:05:54.754Z,18.33
2018-12-16T01:08:26.635Z,19.90
2018-12-16T01:10:58.231Z,18.23
2018-12-16T01:13:33.079Z,18.37
2018-12-16T01:16:01.813Z,18.37
2018-12-16T01:18:36.611Z,17.80
2018-12-16T01:21:05.337Z,19.10
2018-12-16T01:23:35.796Z,18.33
2018-12-16T01:26:10.310Z,16.67
2018-12-16T01:28:38.736Z,17.73
2018-12-16T01:31:14.177Z,17.33
2018-12-16T01:33:47.419Z,16.73
2018-12-16T01:36:19.394Z,16.50
2018-12-16T01:38:48.289Z,16.70
2018-12-16T01:41:24.144Z,16.90
2018-12-16T01:43:53.768Z,15.90
2018-12-16T01:46:22.328Z,16.40
2018-12-16T01:48:51.357Z,14.93
2018-12-16T01:51:23.182Z,16.17
2018-12-16T01:53:51.908Z,14.87
2018-12-16T01:56:22.359Z,15.40
2018-12-16T01:58:51.000Z,14.67
2018-12-16T02:01:23.168Z,14.47
2018-12-16T02:03:53.824Z,12.50
2018-12-16T02:06:22.301Z,13.30
2018-12-16T02:08:51.138Z,13.43
2018-12-16T02:11:19.674Z,12.73
2018-12-16T02:13:52.821Z,11.77
2018-12-16T02:16:21.392Z,12.00
2018-12-16T02:18:49.797Z,12.17
2018-12-16T02:21:18.290Z,11.37
2018-12-16T02:23:50.094Z,11.53
2018-12-16T02:26:18.549Z,11.30
2018-12-16T02:28:50.054Z,10.70
2018-12-16T02:31:18.937Z,11.03
2018-12-16T02:33:50.785Z,12.37
2018-12-16T02:36:19.351Z,10.80
2018-12-16T02:38:52.943Z,11.63
2018-12-16T02:41:21.553Z,11.77
2018-12-16T02:43:50.441Z,11.93
2018-12-16T02:46:20.781Z,12.07
2018-12-16T02:48:49.345Z,12.17
2018-12-16T02:51:18.033Z,12.13
2018-12-16T02:53:46.670Z,10.97
2018-12-16T02:56:16.761Z,11.97
2018-12-16T02:58:45.715Z,10.60
2018-12-16T03:01:14.254Z,11.93
2018-12-16T03:03:49.261Z,11.53
2018-12-16T03:06:17.976Z,11.53
2018-12-16T03:08:49.685Z,11.10
2018-12-16T03:11:22.175Z,12.63
2018-12-16T03:13:55.187Z,10.50
2018-12-16T03:16:24.063Z,11.40
2018-12-16T03:18:55.858Z,12.23
2018-12-16T03:21:24.481Z,11.87
2018-12-16T03:23:54.176Z,11.67
2018-12-16T03:26:26.449Z,11.97
2018-12-16T03:28:54.876Z,11.30
2018-12-16T03:31:23.438Z,11.23
2018-12-16T03:33:51.937Z,11.43
2018-12-16T03:36:20.364Z,11.17
2018-12-16T03:38:50.806Z,11.63
2018-12-16T03:41:23.258Z,11.23
2018-12-16T03:43:55.141Z,11.60
2018-12-16T03:46:25.835Z,10.87
2018-12-16T03:48:54.365Z,10.93
2018-12-16T03:51:26.991Z,10.90
2018-12-16T03:53:56.698Z,11.50
2018-12-16T03:56:28.333Z,11.80
2018-12-16T03:59:08.133Z,10.87
2018-12-16T04:01:41.293Z,11.37
2018-12-16T04:04:09.895Z,12.17
2018-12-16T04:06:39.895Z,12.27
2018-12-16T04:09:08.768Z,11.70
2018-12-16T04:11:40.906Z,11.50
2018-12-16T04:14:09.296Z,12.83
2018-12-16T04:16:39.504Z,11.30
2018-12-16T04:19:07.976Z,12.63
2018-12-16T04:21:41.934Z,11.60
2018-12-16T04:24:18.553Z,12.23
2018-12-16T04:26:55.382Z,12.20
2018-12-16T04:29:34.056Z,11.67
2018-12-16T04:32:02.729Z,12.20
2018-12-16T04:34:35.578Z,11.97
2018-12-16T04:37:10.439Z,11.53
2018-12-16T04:39:43.096Z,11.97
2018-12-16T04:42:22.447Z,12.30
2018-12-16T04:44:51.598Z,11.83
2018-12-16T04:47:20.170Z,10.97
2018-12-16T04:49:53.643Z,11.03
2018-12-16T04:52:27.134Z,10.37
2018-12-16T04:55:01.755Z,10.37
2018-12-16T04:57:32.162Z,11.37
2018-12-16T05:00:02.617Z,10.60
2018-12-16T05:02:36.813Z,12.07
2018-12-16T05:05:05.625Z,11.20
2018-12-16T05:07:39.844Z,10.80
2018-12-16T05:13:06.545Z,11.77
2018-12-16T05:15:35.150Z,11.40
2018-12-16T05:18:06.099Z,11.53
2018-12-16T05:20:37.142Z,10.80
2018-12-16T05:23:14.798Z,11.50
2018-12-16T05:25:47.888Z,11.33
2018-12-16T05:28:22.849Z,11.37
2018-12-16T05:30:57.113Z,11.83
2018-12-16T05:33:31.850Z,10.93
2018-12-16T05:36:07.930Z,11.37
2018-12-16T05:38:41.286Z,11.40
2018-12-16T05:41:14.895Z,11.37
2018-12-16T05:43:43.349Z,11.17
2018-12-16T05:46:17.681Z,10.67
2018-12-16T05:48:47.471Z,10.80
2018-12-16T05:51:19.426Z,11.83
2018-12-16T05:53:54.250Z,11.30
2018-12-16T05:56:23.322Z,10.53
2018-12-16T05:58:53.496Z,13.13
2018-12-16T06:01:28.689Z,11.60
2018-12-16T06:04:05.273Z,12.30
2018-12-16T06:06:40.615Z,12.13
2018-12-16T06:11:57.621Z,13.17
2018-12-16T06:14:26.248Z,13.20
2018-12-16T06:16:54.958Z,13.67
2018-12-16T06:19:23.767Z,13.03
2018-12-16T06:21:52.372Z,14.10
2018-12-16T06:24:20.865Z,13.13
2018-12-16T06:26:49.446Z,12.73
2018-12-16T06:29:17.915Z,14.13
2018-12-16T06:31:46.439Z,13.77
2018-12-16T06:34:14.963Z,13.00
2018-12-16T06:36:43.431Z,13.30
2018-12-16T06:39:11.970Z,13.93
2018-12-16T06:41:40.436Z,13.03
2018-12-16T06:44:08.981Z,13.43
2018-12-16T06:46:37.477Z,13.13
2018-12-16T06:49:05.982Z,13.67
2018-12-16T06:51:34.807Z,13.27
2018-12-16T06:54:03.322Z,13.60
2018-12-16T06:56:31.834Z,14.07
2018-12-16T06:59:00.281Z,13.60
2018-12-16T07:01:28.787Z,13.63
2018-12-16T07:03:57.279Z,13.77
2018-12-16T07:06:26.929Z,13.53
2018-12-16T07:08:55.409Z,13.53
2018-12-16T07:11:23.994Z,14.97
2018-12-16T07:13:52.558Z,14.40
2018-12-16T07:16:21.415Z,13.87
2018-12-16T07:18:49.994Z,12.77
2018-12-16T07:21:18.513Z,13.80
2018-12-16T07:23:46.944Z,12.80
2018-12-16T07:26:15.456Z,14.10
2018-12-16T07:28:43.993Z,14.40
2018-12-16T07:31:12.559Z,15.03
2018-12-16T07:33:41.194Z,14.77
2018-12-16T07:36:12.771Z,15.60
2018-12-16T07:38:41.421Z,14.93
2018-12-16T07:41:10.115Z,13.97
2018-12-16T07:43:38.850Z,15.10
2018-12-16T07:46:07.419Z,13.97
2018-12-16T07:48:36.242Z,13.90
2018-12-16T07:51:04.989Z,15.73
2018-12-16T07:53:33.422Z,16.97
2018-12-16T07:56:01.981Z,14.67
2018-12-16T07:58:30.709Z,14.87
2018-12-16T08:00:59.382Z,13.73
2018-12-16T08:03:28.086Z,14.70
2018-12-16T08:05:57.060Z,14.43
2018-12-16T08:08:25.748Z,15.83
2018-12-16T08:10:54.459Z,15.27
2018-12-16T08:13:22.994Z,15.03
2018-12-16T08:15:51.581Z,15.17
2018-12-16T08:18:20.155Z,14.57
2018-12-16T08:20:48.774Z,15.00
2018-12-16T08:23:17.240Z,15.20
2018-12-16T08:25:45.830Z,14.60
2018-12-16T08:28:14.379Z,14.00
2018-12-16T08:30:43.169Z,15.40
2018-12-16T08:33:12.330Z,14.03
2018-12-16T08:35:40.927Z,16.37
2018-12-16T08:38:09.476Z,15.37
2018-12-16T08:40:38.250Z,14.60
2018-12-16T08:43:06.888Z,14.77
2018-12-16T08:45:35.486Z,15.07
2018-12-16T08:48:04.163Z,15.57
2018-12-16T08:50:32.847Z,14.77
2018-12-16T08:53:01.305Z,14.40
2018-12-16T08:55:29.944Z,14.33
2018-12-16T08:57:58.507Z,14.80
2018-12-16T09:00:27.385Z,14.40
2018-12-16T09:02:55.999Z,14.90
2018-12-16T09:05:24.521Z,14.33
2018-12-16T09:07:53.274Z,13.83
2018-12-16T09:10:21.773Z,14.60
2018-12-16T09:12:50.438Z,14.13
2018-12-16T09:24:23.264Z,12.10
2018-12-16T09:27:13.504Z,13.73
2018-12-16T09:32:51.102Z,12.93
2018-12-16T09:35:19.407Z,13.40
2018-12-16T09:37:47.940Z,14.23
2018-12-16T09:40:16.301Z,14.03
2018-12-16T09:42:44.650Z,13.23
2018-12-16T09:45:13.073Z,12.73
2018-12-16T09:47:41.756Z,14.10
2018-12-16T09:50:10.330Z,14.37
2018-12-16T09:52:38.703Z,16.17
2018-12-16T09:55:07.697Z,13.47
2018-12-16T09:57:36.065Z,13.60
2018-12-16T10:00:05.097Z,13.33
2018-12-16T10:02:33.643Z,13.87
2018-12-16T10:05:02.156Z,13.73
2018-12-16T10:07:30.456Z,13.03
2018-12-16T10:09:58.817Z,13.97
2018-12-16T10:12:27.341Z,12.77
2018-12-16T10:14:55.762Z,14.77
2018-12-16T10:17:24.078Z,13.97
2018-12-16T10:19:52.721Z,13.73
2018-12-16T10:22:21.211Z,13.10
2018-12-16T10:24:51.508Z,13.87
2018-12-16T10:27:20.291Z,14.13
2018-12-16T10:29:48.803Z,13.90
2018-12-16T10:32:17.117Z,14.47
2018-12-16T10:34:45.529Z,13.63
2018-12-16T10:37:13.899Z,14.83
2018-12-16T10:39:43.455Z,14.57
2018-12-16T10:42:11.779Z,13.43
2018-12-16T10:44:40.182Z,13.80
2018-12-16T10:47:08.461Z,15.03
2018-12-16T10:49:36.893Z,15.67
2018-12-16T10:52:05.381Z,14.70
2018-12-16T10:54:33.739Z,15.50
2018-12-16T10:57:02.714Z,15.60
2018-12-16T10:59:31.749Z,15.00
2018-12-16T11:02:00.049Z,15.83
2018-12-16T11:04:28.410Z,16.10
2018-12-16T11:06:56.708Z,14.20
2018-12-16T11:09:25.180Z,15.60
2018-12-16T11:11:53.510Z,15.23
2018-12-16T11:14:21.844Z,14.67
2018-12-16T11:16:50.300Z,16.13
2018-12-16T11:19:18.733Z,15.33
2018-12-16T11:21:47.123Z,17.60
2018-12-16T11:24:15.532Z,16.50
2018-12-16T11:26:43.967Z,18.20
2018-12-16T11:29:12.370Z,15.43
2018-12-16T11:31:40.709Z,17.17
2018-12-16T11:34:09.377Z,15.07
2018-12-16T11:36:37.705Z,12.87
2018-12-16T11:39:07.650Z,14.53
2018-12-16T11:41:36.087Z,13.90
2018-12-16T11:44:04.512Z,13.10
2018-12-16T11:46:32.885Z,13.27
2018-12-16T11:49:01.265Z,14.87
2018-12-16T11:51:29.707Z,13.90
2018-12-16T11:53:58.034Z,14.00
2018-12-16T11:56:26.400Z,13.07
2018-12-16T11:58:54.968Z,12.90
2018-12-16T12:01:23.337Z,13.60
2018-12-16T12:03:51.732Z,14.03
2018-12-16T12:06:20.053Z,14.07
2018-12-16T12:08:48.379Z,15.37
2018-12-16T12:11:16.734Z,12.77
2018-12-16T12:13:45.265Z,13.10
2018-12-16T12:16:13.692Z,15.07
2018-12-16T12:18:42.106Z,13.60
2018-12-16T12:21:10.548Z,13.60
2018-12-16T12:23:38.885Z,14.03
2018-12-16T12:26:07.299Z,13.33
2018-12-16T12:28:35.947Z,13.83
2018-12-16T12:31:04.733Z,14.10
2018-12-16T12:33:33.052Z,14.53
2018-12-16T12:36:01.431Z,14.17
2018-12-16T12:38:29.980Z,14.17
2018-12-16T12:40:58.495Z,14.63
2018-12-16T12:43:26.845Z,13.83
2018-12-16T12:45:55.353Z,14.07
2018-12-16T12:48:23.733Z,13.77
2018-12-16T12:50:52.120Z,15.90
2018-12-16T12:53:20.494Z,14.97
2018-12-16T12:55:48.990Z,13.30
2018-12-16T12:58:17.304Z,14.33
2018-12-16T13:00:45.645Z,14.00
2018-12-16T13:03:13.968Z,13.03
2018-12-16T13:05:42.292Z,13.67
2018-12-16T13:08:10.629Z,14.43
2018-12-16T13:10:38.960Z,14.47
2018-12-16T13:13:07.337Z,15.40
2018-12-16T13:15:36.199Z,17.03
2018-12-16T13:18:04.649Z,15.73
2018-12-16T13:20:33.052Z,16.00
2018-12-16T13:23:01.505Z,16.07
2018-12-16T13:25:41.315Z,15.93
2018-12-16T13:28:10.118Z,13.37
2018-12-16T13:30:38.669Z,16.47
2018-12-16T13:33:07.096Z,15.63
2018-12-16T13:35:35.415Z,15.90
2018-12-16T13:38:03.706Z,15.73
2018-12-16T13:40:32.158Z,17.87
2018-12-16T13:43:00.525Z,14.33
2018-12-16T13:45:28.933Z,15.03
2018-12-16T13:47:57.292Z,15.10
2018-12-16T13:50:25.637Z,14.40
2018-12-16T13:52:54.041Z,14.50
2018-12-16T13:55:23.161Z,14.17
2018-12-16T13:57:51.944Z,22.03
2018-12-16T14:00:20.276Z,15.00
2018-12-16T14:02:49.957Z,15.50
2018-12-16T14:05:18.511Z,15.07
2018-12-16T14:07:46.826Z,13.87
2018-12-16T14:10:15.142Z,14.50
2018-12-16T14:12:43.497Z,14.63
2018-12-16T14:15:11.916Z,14.27
2018-12-16T14:17:40.215Z,14.17
2018-12-16T14:20:10.088Z,15.13
2018-12-16T14:22:38.556Z,14.80
2018-12-16T14:25:07.259Z,14.33
2018-12-16T14:27:35.593Z,14.73
2018-12-16T14:30:05.144Z,14.83
2018-12-16T14:32:33.442Z,14.90
2018-12-16T14:35:02.725Z,15.07
2018-12-16T14:37:31.273Z,15.73
2018-12-16T14:39:59.683Z,14.87
2018-12-16T14:42:28.021Z,15.50
2018-12-16T14:44:56.387Z,15.53
2018-12-16T14:47:24.727Z,16.67
2018-12-16T14:49:53.065Z,20.13
2018-12-16T14:52:21.471Z,16.60
2018-12-16T14:54:49.861Z,15.37
2018-12-16T14:57:18.281Z,16.33
2018-12-16T14:59:46.776Z,16.90
2018-12-16T15:02:15.099Z,16.63
2018-12-16T15:04:43.645Z,15.93
2018-12-16T15:07:12.104Z,16.30
2018-12-16T15:09:40.497Z,16.23
2018-12-16T15:12:08.888Z,15.90
2018-12-16T15:14:37.633Z,16.07
2018-12-16T15:17:05.948Z,16.13
2018-12-16T15:19:34.420Z,15.63
2018-12-16T15:22:02.788Z,16.57
2018-12-16T15:24:31.132Z,16.83
2018-12-16T15:26:59.603Z,15.57
2018-12-16T15:29:27.887Z,15.63
2018-12-16T15:31:56.308Z,15.57
2018-12-16T15:34:24.706Z,15.43
2018-12-16T15:36:53.158Z,15.40
2018-12-16T15:39:21.607Z,15.10
2018-12-16T15:41:50.127Z,15.17
2018-12-16T15:44:18.416Z,17.17
2018-12-16T15:46:46.871Z,15.47
2018-12-16T15:49:15.159Z,15.23
2018-12-16T15:51:43.464Z,15.70
2018-12-16T15:54:11.821Z,15.63
2018-12-16T15:56:40.187Z,16.33
2018-12-16T15:59:08.524Z,16.10
2018-12-16T16:01:36.917Z,16.03
2018-12-16T16:04:05.233Z,16.37
2018-12-16T16:06:34.389Z,17.17
2018-12-16T16:09:03.013Z,16.90
2018-12-16T16:11:31.489Z,16.57
2018-12-16T16:14:00.169Z,14.30
2018-12-16T16:16:28.485Z,15.50
2018-12-16T16:18:56.917Z,16.67
2018-12-16T16:21:25.238Z,16.07
2018-12-16T16:23:53.567Z,15.93
2018-12-16T16:26:21.941Z,16.77
2018-12-16T16:28:50.280Z,16.03
2018-12-16T16:31:18.616Z,15.93
2018-12-16T16:33:46.971Z,17.10
2018-12-16T16:36:15.303Z,16.63
2018-12-16T16:38:43.713Z,15.73
2018-12-16T16:41:12.026Z,16.20
2018-12-16T16:43:40.363Z,16.37
2018-12-16T16:46:08.708Z,17.60
2018-12-16T16:48:37.146Z,15.93
2018-12-16T16:51:05.461Z,18.37
2018-12-16T16:53:33.736Z,18.77
2018-12-16T16:56:02.050Z,18.87
2018-12-16T16:58:30.530Z,20.00
2018-12-16T17:00:58.896Z,20.53
2018-12-16T17:03:27.234Z,19.13
2018-12-16T17:05:55.678Z,18.47
2018-12-16T17:08:24.025Z,19.80
2018-12-16T17:10:52.529Z,19.03
2018-12-16T17:13:20.835Z,18.73
2018-12-16T17:15:49.197Z,16.40
2018-12-16T17:18:17.542Z,30.72
2018-12-16T17:20:46.119Z,27.13
2018-12-16T17:23:14.531Z,22.30
2018-12-16T17:25:48.196Z,19.93
2018-12-16T17:28:13.282Z,19.67
2018-12-16T17:30:41.600Z,19.73
2018-12-16T17:33:09.901Z,21.30
2018-12-16T17:35:38.241Z,27.90
2018-12-16T17:38:07.693Z,28.00
2018-12-16T17:40:36.219Z,24.13
2018-12-16T17:43:04.720Z,21.33
2018-12-16T17:45:33.350Z,21.67
2018-12-16T17:48:01.773Z,19.33
2018-12-16T17:50:30.237Z,20.40
2018-12-16T17:52:59.339Z,19.23
2018-12-16T17:55:27.753Z,19.27
2018-12-16T17:57:56.152Z,20.87
2018-12-16T18:00:24.694Z,18.23
2018-12-16T18:02:53.121Z,17.00
2018-12-16T18:05:21.721Z,19.03
2018-12-16T18:07:50.048Z,17.47
2018-12-16T18:10:18.417Z,17.77
2018-12-16T18:12:46.767Z,18.20
2018-12-16T18:15:15.295Z,19.13
2018-12-16T18:17:43.753Z,19.27
2018-12-16T18:20:12.338Z,19.07
2018-12-16T18:22:40.749Z,18.53
2018-12-16T18:25:09.154Z,17.30
2018-12-16T18:27:37.527Z,17.70
2018-12-16T18:30:07.504Z,18.37
2018-12-16T18:32:35.852Z,18.07
2018-12-16T18:35:04.715Z,19.53
2018-12-16T18:37:33.132Z,20.37
2018-12-16T18:40:01.633Z,18.53
2018-12-16T18:42:30.039Z,20.40
2018-12-16T18:44:58.483Z,21.37
2018-12-16T18:47:26.916Z,21.67
2018-12-16T18:49:55.298Z,21.10
2018-12-16T18:52:24.258Z,21.27
2018-12-16T18:54:52.572Z,23.07
2018-12-16T18:57:20.857Z,20.17
2018-12-16T18:59:49.214Z,19.87
2018-12-16T19:02:17.609Z,17.80
2018-12-16T19:04:45.969Z,20.07
2018-12-16T19:07:14.288Z,19.90
2018-12-16T19:09:42.732Z,20.63
2018-12-16T19:12:11.102Z,19.73
2018-12-16T19:14:39.932Z,17.70
2018-12-16T19:17:08.385Z,18.63
2018-12-16T19:19:36.805Z,18.63
2018-12-16T19:22:05.348Z,18.37
2018-12-16T19:24:33.715Z,18.97
2018-12-16T19:27:02.367Z,18.30
2018-12-16T19:29:30.716Z,18.03
2018-12-16T19:32:00.156Z,19.30
2018-12-16T19:34:28.916Z,19.83
2018-12-16T19:36:57.434Z,18.27
2018-12-16T19:39:25.898Z,19.37
2018-12-16T19:41:54.333Z,17.97
2018-12-16T19:44:24.290Z,19.27
2018-12-16T19:46:53.359Z,18.33
2018-12-16T19:49:22.360Z,19.63
2018-12-16T19:52:01.794Z,19.93
2018-12-16T19:54:31.777Z,19.60
2018-12-16T19:57:05.091Z,19.83
2018-12-16T19:59:30.785Z,22.30
2018-12-16T20:02:00.977Z,21.80
2018-12-16T20:04:34.644Z,19.93
2018-12-16T20:07:03.133Z,19.20
2018-12-16T20:09:31.523Z,25.97
2018-12-16T20:11:59.856Z,22.17
2018-12-16T20:14:28.186Z,19.67
2018-12-16T20:16:56.589Z,29.47
2018-12-16T20:19:25.010Z,24.73
2018-12-16T20:21:54.651Z,47.83
2018-12-16T20:24:24.207Z,27.87
2018-12-16T20:26:53.845Z,19.93
2018-12-16T20:29:23.884Z,20.80
2018-12-16T20:31:52.210Z,19.57
2018-12-16T20:34:21.300Z,21.13
2018-12-16T20:36:50.460Z,20.47
2018-12-16T20:39:18.819Z,20.93
2018-12-16T20:41:47.141Z,21.47
2018-12-16T20:44:17.512Z,22.40
2018-12-16T20:46:46.029Z,21.00
2018-12-16T20:49:14.375Z,22.67
2018-12-16T20:51:42.749Z,22.10
2018-12-16T20:54:12.643Z,22.70
2018-12-16T20:56:41.028Z,24.63
2018-12-16T20:59:09.388Z,21.17
2018-12-16T21:01:37.878Z,21.90
2018-12-16T21:04:08.514Z,21.67
2018-12-16T21:06:36.877Z,20.40
2018-12-16T21:09:07.633Z,30.87
2018-12-16T21:11:42.513Z,24.17
2018-12-16T21:14:16.281Z,23.50
2018-12-16T21:16:50.103Z,25.37
2018-12-16T21:19:18.856Z,27.67
2018-12-16T21:21:47.235Z,22.60
2018-12-16T21:24:17.111Z,21.57
2018-12-16T21:26:45.475Z,21.80
2018-12-16T21:29:13.886Z,20.87
2018-12-16T21:31:43.525Z,19.57
2018-12-16T21:34:12.313Z,20.70
2018-12-16T21:36:41.143Z,21.20
2018-12-16T21:39:12.935Z,18.80
2018-12-16T21:41:44.608Z,20.10
2018-12-16T21:44:13.032Z,19.53
2018-12-16T21:46:41.543Z,18.37
2018-12-16T21:49:10.997Z,19.70
2018-12-16T21:51:40.613Z,18.80
2018-12-16T21:54:08.970Z,18.67
2018-12-16T21:56:37.303Z,19.30
2018-12-16T21:59:05.659Z,19.00
2018-12-16T22:01:34.053Z,18.60
2018-12-16T22:04:02.647Z,18.67
2018-12-16T22:06:31.030Z,17.50
2018-12-16T22:08:59.340Z,19.47
2018-12-16T22:11:27.759Z,17.90
2018-12-16T22:13:56.936Z,19.37
2018-12-16T22:16:25.265Z,18.37
2018-12-16T22:18:53.708Z,20.23
2018-12-16T22:21:22.034Z,17.43
2018-12-16T22:23:50.462Z,17.67
2018-12-16T22:26:19.045Z,19.17
2018-12-16T22:28:47.450Z,18.87
2018-12-16T22:31:15.756Z,18.57
2018-12-16T22:33:44.120Z,19.37
2018-12-16T22:36:12.513Z,18.43
2018-12-16T22:38:40.848Z,17.70
2018-12-16T22:41:09.186Z,17.80
2018-12-16T22:43:37.888Z,17.07
2018-12-16T22:46:06.274Z,18.50
2018-12-16T22:48:34.816Z,17.33
2018-12-16T22:51:03.228Z,18.93
2018-12-16T22:53:31.584Z,17.07
2018-12-16T22:55:59.928Z,17.63
2018-12-16T22:58:28.275Z,17.37
2018-12-16T23:01:02.232Z,18.93
2018-12-16T23:03:30.609Z,18.20
2018-12-16T23:06:01.105Z,19.20
2018-12-16T23:08:29.572Z,18.47
2018-12-16T23:10:58.157Z,17.87
2018-12-16T23:13:26.540Z,17.20
2018-12-16T23:15:54.943Z,19.93
2018-12-16T23:18:23.266Z,18.90
2018-12-16T23:20:51.669Z,19.50
2018-12-16T23:23:20.091Z,17.93
2018-12-16T23:25:48.449Z,17.70
2018-12-16T23:28:17.080Z,19.30
2018-12-16T23:30:45.393Z,18.43
2018-12-16T23:33:13.781Z,16.90
2018-12-16T23:35:42.165Z,16.83
2018-12-16T23:38:10.549Z,15.17
2018-12-16T23:40:38.979Z,16.70
2018-12-16T23:43:07.407Z,17.70
2018-12-16T23:45:35.753Z,16.43
2018-12-16T23:48:04.156Z,17.27
2018-12-16T23:50:32.502Z,17.83
2018-12-16T23:53:00.821Z,18.07
2018-12-16T23:55:29.116Z,16.83
2018-12-16T23:58:01.018Z,18.03
